Pagina principale
METAR-TAF:

METAR-TAF

Aeroporti :

Emmen, Svizzera

latitudine: 47-05-32N, longitudine: 8-18-16E, altezza: 426 m

Osservazione

Il bollettino è stato emesso 26 minuti fa, alle 03:20 UTC
Vento 8 kt da nord/nord-est, variando fra nord e nord-est
Temperature 7°C
Umidità 81%
Pressione 1031 hPa
Visibilità 10 km o più
Cielo coperto ad un'altezza di 1600 ft

METAR: LSME 270320Z AUTO 02008KT 350V050 9999NDV OVC016 07/04 Q1031 RMK

Ora: 04:46 (03:46 UTC)


TAF: mancante

Osservazioni e previsioni meteorologiche di più di 4000 aeroporti (messaggi METAR e TAF).

Le stazioni disponibili sono rappresentate dai dischi gialli e rossi sulla carta.

Puntare il mouse per vedere il nome della stazione.

Clicca sopra per visualizzare le osservazioni e previsioni meteorologiche.

Per cambiare la mappa : fare clic sui pulsanti verdi con una croce nera per ingrandire, il pulsante verde con un trattino per diminuire, o sulla freccia verde per le mappe adiacenti.


METAR-TAF: